createdAt,value
2023-03-29T00:02:20.991Z,97442.13
2023-03-29T00:05:26.295Z,97455.72
2023-03-29T00:08:32.071Z,97447.47
2023-03-29T00:11:36.675Z,97411.38
2023-03-29T00:14:41.178Z,97426.56
2023-03-29T00:17:46.153Z,97429.84
2023-03-29T00:20:58.142Z,97423.38
2023-03-29T00:24:02.673Z,97435.88
2023-03-29T00:27:07.491Z,97422.78
2023-03-29T00:30:12.506Z,97427.28
2023-03-29T00:33:21.501Z,97426.47
2023-03-29T00:36:26.587Z,97431.63
2023-03-29T00:39:31.194Z,97428.75
2023-03-29T00:42:36.019Z,97389.22
2023-03-29T00:45:42.286Z,97417.84
2023-03-29T00:48:47.328Z,97401.00
2023-03-29T00:51:52.150Z,97386.72
2023-03-29T00:55:02.731Z,97412.59
2023-03-29T00:58:12.947Z,97408.63
2023-03-29T01:01:26.001Z,97371.50
2023-03-29T01:04:53.000Z,97394.34
2023-03-29T01:08:03.316Z,97362.94
2023-03-29T01:11:37.076Z,97385.81
2023-03-29T01:14:48.767Z,97402.28
2023-03-29T01:17:55.690Z,97422.16
2023-03-29T01:21:14.785Z,97406.00
2023-03-29T01:24:41.904Z,97384.13
2023-03-29T01:27:53.236Z,97395.97
2023-03-29T01:31:08.291Z,97404.22
2023-03-29T01:34:16.322Z,97367.47
2023-03-29T01:37:27.860Z,97384.72
2023-03-29T01:40:33.528Z,97371.88
2023-03-29T01:43:48.685Z,97361.25
2023-03-29T01:47:08.845Z,97352.41
2023-03-29T01:50:36.552Z,97405.19
2023-03-29T01:53:48.479Z,97396.94
2023-03-29T01:56:53.649Z,97404.19
2023-03-29T02:00:00.469Z,97398.13
2023-03-29T02:03:09.775Z,97398.63
2023-03-29T02:06:18.840Z,97410.28
2023-03-29T02:09:23.852Z,97411.47
2023-03-29T02:12:28.819Z,97397.06
2023-03-29T02:15:33.504Z,97400.44
2023-03-29T02:18:44.173Z,97420.78
2023-03-29T02:22:08.270Z,97390.78
2023-03-29T02:25:13.071Z,97423.38
2023-03-29T02:28:17.971Z,97427.78
2023-03-29T02:31:35.633Z,97420.00
2023-03-29T02:34:49.902Z,97415.84
2023-03-29T02:37:57.363Z,97412.22
2023-03-29T02:41:02.855Z,97365.28
2023-03-29T02:44:14.108Z,97351.34
2023-03-29T02:47:24.517Z,97375.84
2023-03-29T02:50:35.865Z,97379.13
2023-03-29T02:53:49.821Z,97376.88
2023-03-29T02:57:00.637Z,97374.47
2023-03-29T03:00:09.801Z,97343.81
2023-03-29T03:03:15.600Z,97364.88
2023-03-29T03:06:22.866Z,97369.63
2023-03-29T03:09:28.440Z,97362.06
2023-03-29T03:12:32.941Z,97350.41
2023-03-29T03:15:42.586Z,97329.06
2023-03-29T03:18:48.679Z,97335.16
2023-03-29T03:21:53.247Z,97315.84
2023-03-29T03:24:59.267Z,97349.66
2023-03-29T03:28:04.956Z,97349.06
2023-03-29T03:31:10.188Z,97313.78
2023-03-29T03:34:53.081Z,97348.78
2023-03-29T03:38:01.648Z,97346.16
2023-03-29T03:41:07.471Z,97331.56
2023-03-29T03:44:13.211Z,97333.13
2023-03-29T03:47:18.230Z,97333.16
2023-03-29T03:50:23.374Z,97330.59
2023-03-29T03:53:28.378Z,97308.22
2023-03-29T03:57:02.281Z,97339.38
2023-03-29T04:00:20.409Z,97332.50
2023-03-29T04:03:37.386Z,97336.28
2023-03-29T04:06:43.755Z,97296.16
2023-03-29T04:10:09.199Z,97343.34
2023-03-29T04:13:25.627Z,97340.69
2023-03-29T04:16:48.723Z,97339.03
2023-03-29T04:20:13.421Z,97334.19
2023-03-29T04:23:19.226Z,97342.22
2023-03-29T04:26:24.246Z,97334.75
2023-03-29T04:29:34.862Z,97314.56
2023-03-29T04:32:51.795Z,97328.31
2023-03-29T04:35:57.052Z,97304.28
2023-03-29T04:39:01.933Z,97323.94
2023-03-29T04:42:07.416Z,97291.41
2023-03-29T04:45:17.876Z,97309.31
2023-03-29T04:48:48.671Z,97293.19
2023-03-29T04:51:54.394Z,97294.59
2023-03-29T04:55:04.079Z,97323.84
2023-03-29T04:58:32.855Z,97322.06
2023-03-29T05:01:39.566Z,97319.00
2023-03-29T05:04:44.175Z,97287.28
2023-03-29T05:07:52.965Z,97312.47
2023-03-29T05:11:02.160Z,97305.66
2023-03-29T05:14:08.625Z,97301.34
2023-03-29T05:17:13.290Z,97297.78
2023-03-29T05:20:18.117Z,97290.81
2023-03-29T05:23:25.938Z,97279.03
2023-03-29T05:26:51.676Z,97284.97
2023-03-29T05:29:56.574Z,97279.84
2023-03-29T05:33:16.974Z,97261.28
2023-03-29T05:36:22.126Z,97287.38
2023-03-29T05:39:28.146Z,97277.13
2023-03-29T05:42:33.116Z,97283.72
2023-03-29T05:45:45.092Z,97249.63
2023-03-29T05:48:49.750Z,97295.75
2023-03-29T05:51:57.053Z,97291.03
2023-03-29T05:55:04.234Z,97280.97
2023-03-29T05:58:10.302Z,97253.97
2023-03-29T06:01:15.339Z,97282.34
2023-03-29T06:04:31.917Z,97264.84
2023-03-29T06:08:03.183Z,97301.63
2023-03-29T06:11:26.633Z,97265.97
2023-03-29T06:14:58.320Z,97291.19
2023-03-29T06:18:10.796Z,97269.50
2023-03-29T06:21:16.794Z,97260.13
2023-03-29T06:24:21.563Z,97254.91
2023-03-29T06:27:32.777Z,97250.66
2023-03-29T06:30:38.249Z,97283.09
2023-03-29T06:33:43.565Z,97282.50
2023-03-29T06:37:08.505Z,97260.19
2023-03-29T06:40:13.478Z,97275.88
2023-03-29T06:43:22.056Z,97254.81
2023-03-29T06:46:43.711Z,97275.00
2023-03-29T06:49:48.349Z,97255.69
2023-03-29T06:53:11.563Z,97293.78
2023-03-29T06:56:17.696Z,97294.59
2023-03-29T06:59:33.373Z,97296.88
2023-03-29T07:03:06.501Z,97302.13
2023-03-29T07:06:12.248Z,97293.59
2023-03-29T07:09:20.394Z,97289.41
2023-03-29T07:12:46.297Z,97293.63
2023-03-29T07:15:53.130Z,97297.91
2023-03-29T07:19:17.565Z,97292.88
2023-03-29T07:22:33.994Z,97254.72
2023-03-29T07:25:39.722Z,97285.56
2023-03-29T07:28:44.600Z,97291.88
2023-03-29T07:31:49.373Z,97296.22
2023-03-29T07:35:27.227Z,97284.09
2023-03-29T07:38:32.516Z,97279.00
2023-03-29T07:41:41.723Z,97259.16
2023-03-29T07:44:50.547Z,97272.22
2023-03-29T07:47:57.697Z,97283.16
2023-03-29T07:51:06.391Z,97264.28
2023-03-29T07:54:22.758Z,97270.53
2023-03-29T07:57:49.299Z,97267.91
2023-03-29T08:00:55.112Z,97286.13
2023-03-29T08:04:19.778Z,97286.09
2023-03-29T08:07:50.603Z,97261.28
2023-03-29T08:11:09.193Z,97272.41
2023-03-29T08:14:31.511Z,97248.41
2023-03-29T08:18:02.335Z,97251.22
2023-03-29T08:21:07.329Z,97247.09
2023-03-29T08:24:11.895Z,97259.88
2023-03-29T08:27:23.155Z,97255.59
2023-03-29T08:30:27.903Z,97269.34
2023-03-29T08:33:34.985Z,97250.50
2023-03-29T08:37:05.033Z,97272.88
2023-03-29T08:40:21.960Z,97263.44
2023-03-29T08:44:11.350Z,97261.75
2023-03-29T08:47:37.470Z,97237.78
2023-03-29T08:50:53.199Z,97266.91
2023-03-29T08:54:25.693Z,97259.22
2023-03-29T08:57:51.710Z,97226.72
2023-03-29T09:01:09.177Z,97264.34
2023-03-29T09:04:28.102Z,97267.78
2023-03-29T09:07:40.631Z,97268.56
2023-03-29T09:10:54.972Z,97243.78
2023-03-29T09:14:24.522Z,97272.88
2023-03-29T09:17:39.055Z,97272.88
2023-03-29T09:20:53.583Z,97278.81
2023-03-29T09:24:37.393Z,97268.50
2023-03-29T09:27:58.142Z,97261.56
2023-03-29T09:31:39.087Z,97258.81
2023-03-29T09:34:49.085Z,97244.22
2023-03-29T09:37:57.795Z,97231.47
2023-03-29T09:41:08.957Z,97235.69
2023-03-29T09:44:30.159Z,97234.69
2023-03-29T09:47:46.161Z,97254.44
2023-03-29T09:50:52.288Z,97216.03
2023-03-29T09:54:00.146Z,97249.16
2023-03-29T09:57:43.723Z,97240.50
2023-03-29T10:00:51.096Z,97227.00
2023-03-29T10:03:56.686Z,97207.00
2023-03-29T10:07:01.498Z,97230.31
2023-03-29T10:10:10.667Z,97211.31
2023-03-29T10:13:35.883Z,97225.97
2023-03-29T10:16:47.633Z,97219.03
2023-03-29T10:19:57.253Z,97217.06
2023-03-29T10:23:01.882Z,97179.69
2023-03-29T10:26:16.681Z,97183.97
2023-03-29T10:29:23.660Z,97199.19
2023-03-29T10:32:33.476Z,97207.03
2023-03-29T10:35:41.578Z,97210.03
2023-03-29T10:38:46.484Z,97207.03
2023-03-29T10:41:52.977Z,97168.63
2023-03-29T10:44:59.642Z,97200.69
2023-03-29T10:48:06.940Z,97205.28
2023-03-29T10:51:14.547Z,97207.88
2023-03-29T10:54:23.376Z,97200.06
2023-03-29T10:57:37.895Z,97199.25
2023-03-29T11:00:51.086Z,97195.88
2023-03-29T11:04:36.335Z,97192.13
2023-03-29T11:07:57.033Z,97179.38
2023-03-29T11:11:13.819Z,97197.69
2023-03-29T11:14:45.045Z,97192.25
2023-03-29T11:18:01.267Z,97203.56
2023-03-29T11:21:31.533Z,97187.56
2023-03-29T11:24:53.734Z,97175.78
2023-03-29T11:28:07.609Z,97169.50
2023-03-29T11:31:30.449Z,97177.09
2023-03-29T11:34:59.495Z,97178.25
2023-03-29T11:38:32.598Z,97166.34
2023-03-29T11:41:45.056Z,97145.63
2023-03-29T11:44:54.922Z,97145.41
2023-03-29T11:48:05.055Z,97151.38
2023-03-29T11:51:26.149Z,97152.56
2023-03-29T11:54:48.590Z,97129.03
2023-03-29T11:58:01.353Z,97149.88
2023-03-29T12:01:35.224Z,97154.66
2023-03-29T12:04:47.149Z,97157.59
2023-03-29T12:08:03.641Z,97139.19
2023-03-29T12:11:27.095Z,97137.03
2023-03-29T12:14:52.950Z,97133.00
2023-03-29T12:18:07.058Z,97125.78
2023-03-29T12:21:19.909Z,97123.78
2023-03-29T12:24:26.857Z,97114.91
2023-03-29T12:27:37.382Z,97062.19
2023-03-29T12:30:51.736Z,97082.03
2023-03-29T12:34:17.573Z,97111.03
2023-03-29T12:37:51.146Z,97099.22
2023-03-29T12:41:37.699Z,97096.88
2023-03-29T12:45:01.683Z,97062.34
2023-03-29T12:48:18.484Z,97089.16
2023-03-29T12:51:30.687Z,97069.38
2023-03-29T12:54:35.361Z,97065.16
2023-03-29T12:57:44.110Z,97081.66
2023-03-29T13:01:05.591Z,97044.22
2023-03-29T13:04:20.080Z,97057.97
2023-03-29T13:07:27.518Z,97063.34
2023-03-29T13:10:42.263Z,97067.91
2023-03-29T13:13:50.853Z,97064.94
2023-03-29T13:17:15.611Z,97066.56
2023-03-29T13:20:52.563Z,97069.38
2023-03-29T13:24:29.947Z,97072.59
2023-03-29T13:28:04.278Z,97057.41
2023-03-29T13:31:23.428Z,97025.38
2023-03-29T13:34:42.246Z,97058.56
2023-03-29T13:38:08.345Z,97054.75
2023-03-29T13:41:44.472Z,97023.13
2023-03-29T13:44:49.250Z,97037.69
2023-03-29T13:48:21.452Z,97035.47
2023-03-29T13:51:58.265Z,97035.66
2023-03-29T13:58:33.134Z,97042.16
2023-03-29T14:01:48.468Z,97009.31
2023-03-29T14:04:53.715Z,97009.22
2023-03-29T14:08:08.595Z,97011.09
2023-03-29T14:11:44.322Z,97028.78
2023-03-29T14:14:58.880Z,97028.84
2023-03-29T14:18:04.278Z,97026.06
2023-03-29T14:21:12.418Z,97016.94
2023-03-29T14:24:21.922Z,97017.53
2023-03-29T14:27:31.675Z,97012.13
2023-03-29T14:30:36.234Z,96983.75
2023-03-29T14:33:41.510Z,97002.75
2023-03-29T14:36:54.073Z,96983.72
2023-03-29T14:39:59.460Z,96998.81
2023-03-29T14:43:07.959Z,97009.66
2023-03-29T14:46:17.145Z,97008.50
2023-03-29T14:49:23.422Z,96995.16
2023-03-29T14:52:29.817Z,96969.63
2023-03-29T14:55:36.450Z,97007.63
2023-03-29T14:58:46.572Z,97001.41
2023-03-29T15:01:51.446Z,96998.06
2023-03-29T15:05:04.648Z,97008.91
2023-03-29T15:08:16.179Z,97013.28
2023-03-29T15:11:26.530Z,97005.50
2023-03-29T15:14:37.132Z,96997.56
2023-03-29T15:17:51.664Z,96982.78
2023-03-29T15:20:57.092Z,96983.66
2023-03-29T15:24:04.581Z,97001.34
2023-03-29T15:27:18.193Z,96997.44
2023-03-29T15:30:34.031Z,96996.38
2023-03-29T15:33:41.637Z,96967.56
2023-03-29T15:36:46.472Z,96973.97
2023-03-29T15:39:51.613Z,96968.03
2023-03-29T15:42:56.466Z,96991.09
2023-03-29T15:46:01.169Z,96966.63
2023-03-29T15:49:06.016Z,96963.38
2023-03-29T15:52:10.579Z,96971.84
2023-03-29T15:55:15.229Z,96986.53
2023-03-29T15:58:24.726Z,96975.00
2023-03-29T16:01:35.471Z,96970.16
2023-03-29T16:04:40.285Z,96984.03
2023-03-29T16:07:45.295Z,96989.38
2023-03-29T16:10:49.956Z,96970.47
2023-03-29T16:13:55.650Z,96975.06
2023-03-29T16:17:01.107Z,96977.69
2023-03-29T16:20:07.157Z,96969.81
2023-03-29T16:23:12.050Z,96973.84
2023-03-29T16:26:17.340Z,96974.31
2023-03-29T16:29:22.913Z,96982.53
2023-03-29T16:32:27.512Z,96980.13
2023-03-29T16:35:35.397Z,96978.25
2023-03-29T16:38:40.616Z,96972.00
2023-03-29T16:41:48.303Z,96966.22
2023-03-29T16:44:54.512Z,96952.66
2023-03-29T16:47:59.001Z,96982.44
2023-03-29T16:51:03.963Z,96972.38
2023-03-29T16:54:09.225Z,96944.69
2023-03-29T16:57:13.884Z,96955.84
2023-03-29T17:00:20.172Z,96957.19
2023-03-29T17:03:24.926Z,96940.84
2023-03-29T17:06:31.844Z,96959.22
2023-03-29T17:09:36.444Z,96963.28
2023-03-29T17:12:40.960Z,96962.16
2023-03-29T17:15:45.766Z,96935.50
2023-03-29T17:18:50.574Z,96948.69
2023-03-29T17:21:55.139Z,96951.94
2023-03-29T17:24:59.624Z,96945.75
2023-03-29T17:28:04.658Z,96979.38
2023-03-29T17:31:09.332Z,96942.88
2023-03-29T17:34:15.360Z,96935.69
2023-03-29T17:37:23.869Z,96965.09
2023-03-29T17:40:28.522Z,96969.03
2023-03-29T17:43:33.129Z,96962.75
2023-03-29T17:46:38.654Z,96933.78
2023-03-29T17:49:43.225Z,96970.00
2023-03-29T17:52:49.128Z,96952.53
2023-03-29T17:55:53.667Z,96966.56
2023-03-29T17:58:58.303Z,96980.00
2023-03-29T18:02:05.365Z,96961.66
2023-03-29T18:05:10.654Z,96988.41
2023-03-29T18:08:16.571Z,96991.97
2023-03-29T18:11:22.792Z,96995.34
2023-03-29T18:14:27.501Z,96980.75
2023-03-29T18:17:32.001Z,97002.88
2023-03-29T18:20:36.918Z,96995.44
2023-03-29T18:23:44.961Z,97001.19
2023-03-29T18:26:49.510Z,96978.34
2023-03-29T18:29:55.333Z,97000.00
2023-03-29T18:32:59.904Z,97011.97
2023-03-29T18:36:10.832Z,96985.19
2023-03-29T18:39:17.686Z,96980.88
2023-03-29T18:42:22.240Z,96980.75
2023-03-29T18:45:26.846Z,97012.94
2023-03-29T18:48:33.605Z,97009.16
2023-03-29T18:51:38.204Z,96974.47
2023-03-29T18:54:42.751Z,97002.16
2023-03-29T18:57:47.332Z,96984.97
2023-03-29T19:00:51.896Z,97006.25
2023-03-29T19:03:57.311Z,97005.25
2023-03-29T19:07:02.878Z,97002.88
2023-03-29T19:10:08.322Z,97003.47
2023-03-29T19:13:13.241Z,97003.88
2023-03-29T19:16:17.853Z,96977.16
2023-03-29T19:19:23.756Z,97010.63
2023-03-29T19:22:28.344Z,96993.66
2023-03-29T19:25:33.244Z,96976.59
2023-03-29T19:28:37.965Z,97001.91
2023-03-29T19:31:42.741Z,96973.72
2023-03-29T19:34:47.671Z,97001.13
2023-03-29T19:37:52.208Z,96982.81
2023-03-29T19:40:57.020Z,96984.72
2023-03-29T19:44:02.008Z,96976.41
2023-03-29T19:47:06.863Z,96955.31
2023-03-29T19:50:12.227Z,96981.81
2023-03-29T19:53:16.947Z,96966.69
2023-03-29T19:56:23.453Z,96983.81
2023-03-29T19:59:28.099Z,96951.56
2023-03-29T20:02:32.752Z,96976.75
2023-03-29T20:05:38.814Z,96977.78
2023-03-29T20:08:44.344Z,96966.81
2023-03-29T20:11:49.178Z,96930.78
2023-03-29T20:14:53.789Z,96963.31
2023-03-29T20:18:00.255Z,96970.91
2023-03-29T20:21:06.331Z,96971.72
2023-03-29T20:24:11.248Z,96979.56
2023-03-29T20:27:15.838Z,96983.81
2023-03-29T20:30:20.483Z,96975.13
2023-03-29T20:33:25.329Z,96957.09
2023-03-29T20:36:30.598Z,96963.41
2023-03-29T20:39:35.607Z,96953.63
2023-03-29T20:42:40.449Z,96938.16
2023-03-29T20:45:53.514Z,96961.88
2023-03-29T20:49:04.776Z,96937.03
2023-03-29T20:52:15.285Z,96952.22
2023-03-29T20:55:22.236Z,96909.78
2023-03-29T20:58:27.992Z,96927.50
2023-03-29T21:01:35.058Z,96927.66
2023-03-29T21:04:39.655Z,96938.88
2023-03-29T21:07:44.966Z,96939.59
2023-03-29T21:10:49.511Z,96923.56
2023-03-29T21:13:54.051Z,96903.31
2023-03-29T21:16:58.971Z,96898.69
2023-03-29T21:20:08.240Z,96897.53
2023-03-29T21:23:13.306Z,96921.63
2023-03-29T21:26:17.920Z,96918.78
2023-03-29T21:29:22.646Z,96891.19
2023-03-29T21:32:27.236Z,96908.94
2023-03-29T21:35:33.343Z,96917.78
2023-03-29T21:38:37.939Z,96906.09
2023-03-29T21:41:42.509Z,96902.91
2023-03-29T21:44:47.126Z,96869.22
2023-03-29T21:47:52.071Z,96874.00
2023-03-29T21:50:56.749Z,96889.56
2023-03-29T21:54:01.438Z,96874.94
2023-03-29T21:57:06.267Z,96899.63
2023-03-29T22:00:12.803Z,96879.91
2023-03-29T22:03:17.487Z,96904.53
2023-03-29T22:06:22.238Z,96919.41
2023-03-29T22:09:26.885Z,96888.31
2023-03-29T22:12:34.365Z,96907.19
2023-03-29T22:15:39.166Z,96874.81
2023-03-29T22:18:46.746Z,96910.41
2023-03-29T22:21:51.479Z,96893.94
2023-03-29T22:24:56.093Z,96856.28
2023-03-29T22:28:00.691Z,96858.03
2023-03-29T22:31:08.212Z,96894.13
2023-03-29T22:34:12.761Z,96887.88
2023-03-29T22:37:17.909Z,96903.28
2023-03-29T22:40:22.504Z,96915.34
2023-03-29T22:43:27.119Z,96904.41
2023-03-29T22:46:31.873Z,96915.19
2023-03-29T22:49:36.682Z,96874.38
2023-03-29T22:52:41.237Z,96877.69
2023-03-29T22:55:46.249Z,96906.69
2023-03-29T22:58:51.045Z,96872.31
2023-03-29T23:01:55.638Z,96905.88
2023-03-29T23:05:00.671Z,96900.66
2023-03-29T23:08:06.828Z,96903.56
2023-03-29T23:11:11.501Z,96884.94
2023-03-29T23:14:16.043Z,96890.50
2023-03-29T23:17:20.758Z,96854.50
2023-03-29T23:20:25.448Z,96878.31
2023-03-29T23:23:30.228Z,96880.97
2023-03-29T23:26:35.659Z,96858.97
2023-03-29T23:29:40.228Z,96877.78
2023-03-29T23:32:44.858Z,96843.09
2023-03-29T23:35:49.467Z,96849.72
2023-03-29T23:38:54.049Z,96851.56
2023-03-29T23:41:58.850Z,96854.78
2023-03-29T23:45:03.526Z,96858.50
2023-03-29T23:48:08.629Z,96860.78
2023-03-29T23:51:13.189Z,96837.16
2023-03-29T23:54:17.678Z,96858.28
2023-03-29T23:57:22.318Z,96821.13
